Time;durP1;ratioP1;P1;durP2;ratioP2;P2;SDS_P1;SDS_P2;PMS_P1;PMS_P2;Temp;Humidity;BMP_temperature;BMP_pressure;BME280_temperature;BME280_humidity;BME280_pressure;Samples;Min_cycle;Max_cycle;Signal;HPM_P1;HPM_P2
2023/12/18 00:01:05;;;;;;;48.45;40.67;;;;;;;;;;5013082;28;20121;-72
2023/12/18 00:03:30;;;;;;;54.55;47.78;;;;;;;;;;5012692;28;20033;-73
2023/12/18 00:05:55;;;;;;;52.08;44.08;;;;;;;;;;5021454;28;20444;-74
2023/12/18 00:08:21;;;;;;;52.03;43.22;;;;;;;;;;5027247;28;20116;-73
2023/12/18 00:10:46;;;;;;;99.68;80.38;;;;;;;;;;5022084;28;20034;-72
2023/12/18 00:13:12;;;;;;;62.05;53.58;;;;;;;;;;5012609;28;20206;-73
2023/12/18 00:15:37;;;;;;;48.05;42.50;;;;;;;;;;5013918;28;20025;-72
2023/12/18 00:18:03;;;;;;;46.78;39.38;;;;;;;;;;5022756;28;20100;-72
2023/12/18 00:20:28;;;;;;;51.95;43.78;;;;;;;;;;5021273;28;20053;-72
2023/12/18 00:22:53;;;;;;;43.35;37.40;;;;;;;;;;5022242;28;20104;-75
2023/12/18 00:25:19;;;;;;;43.25;38.17;;;;;;;;;;5023075;28;20021;-72
2023/12/18 00:27:44;;;;;;;77.07;61.42;;;;;;;;;;5022661;28;20036;-72
2023/12/18 00:30:10;;;;;;;103.95;79.55;;;;;;;;;;5022464;28;20056;-72
2023/12/18 00:32:35;;;;;;;82.68;61.15;;;;;;;;;;5023566;28;20029;-74
2023/12/18 00:35:00;;;;;;;74.90;57.25;;;;;;;;;;5021905;28;20036;-72
2023/12/18 00:37:26;;;;;;;49.33;43.65;;;;;;;;;;5025204;28;20334;-72
2023/12/18 00:39:51;;;;;;;56.17;44.92;;;;;;;;;;5022387;28;20092;-72
2023/12/18 00:42:17;;;;;;;68.05;53.35;;;;;;;;;;5010315;28;20025;-71
2023/12/18 00:44:42;;;;;;;64.95;53.40;;;;;;;;;;5007537;28;20033;-72
2023/12/18 00:47:07;;;;;;;66.47;53.83;;;;;;;;;;5011953;28;20037;-75
2023/12/18 00:49:34;;;;;;;51.40;43.63;;;;;;;;;;5022556;28;20041;-74
2023/12/18 00:51:59;;;;;;;58.00;48.28;;;;;;;;;;5022731;28;20076;-75
2023/12/18 00:54:25;;;;;;;45.17;38.08;;;;;;;;;;5010956;28;20053;-74
2023/12/18 00:56:50;;;;;;;39.95;35.08;;;;;;;;;;5022087;28;20047;-71
2023/12/18 00:59:15;;;;;;;41.85;35.28;;;;;;;;;;5021464;28;20452;-71
2023/12/18 01:01:42;;;;;;;42.80;36.75;;;;;;;;;;5004705;28;20440;-73
2023/12/18 01:04:07;;;;;;;49.50;40.63;;;;;;;;;;5022027;28;20029;-71
2023/12/18 01:06:32;;;;;;;58.33;45.38;;;;;;;;;;5021766;28;20028;-74
2023/12/18 01:08:58;;;;;;;70.03;55.22;;;;;;;;;;5009293;28;20068;-72
2023/12/18 01:11:23;;;;;;;53.13;43.00;;;;;;;;;;5007387;28;20026;-73
2023/12/18 01:13:49;;;;;;;63.90;49.88;;;;;;;;;;5007875;28;20134;-73
2023/12/18 01:16:14;;;;;;;67.43;50.55;;;;;;;;;;5011570;28;20104;-71
2023/12/18 01:18:39;;;;;;;57.13;47.20;;;;;;;;;;5018163;28;20037;-72
2023/12/18 01:21:05;;;;;;;41.65;34.65;;;;;;;;;;5020837;28;20051;-71
2023/12/18 01:23:30;;;;;;;39.58;33.00;;;;;;;;;;5021291;28;20100;-72
2023/12/18 01:25:55;;;;;;;38.28;32.65;;;;;;;;;;5020714;28;20060;-73
2023/12/18 01:28:21;;;;;;;42.30;35.15;;;;;;;;;;5020213;28;20049;-71
2023/12/18 01:30:46;;;;;;;105.85;68.00;;;;;;;;;;5010259;28;20095;-72
2023/12/18 01:33:11;;;;;;;66.63;46.83;;;;;;;;;;5020942;28;20025;-74
2023/12/18 01:35:37;;;;;;;74.63;51.90;;;;;;;;;;5021223;28;20494;-71
2023/12/18 01:38:02;;;;;;;43.80;35.58;;;;;;;;;;5019512;28;20032;-73
2023/12/18 01:40:28;;;;;;;37.72;32.95;;;;;;;;;;5022314;28;20037;-72
2023/12/18 01:42:53;;;;;;;89.20;59.45;;;;;;;;;;5021884;28;20035;-72
2023/12/18 01:45:18;;;;;;;58.60;42.70;;;;;;;;;;5009178;28;20677;-73
2023/12/18 01:47:44;;;;;;;41.15;33.15;;;;;;;;;;5021560;28;20017;-73
2023/12/18 01:50:09;;;;;;;68.63;48.00;;;;;;;;;;5021119;28;20076;-72
2023/12/18 01:52:35;;;;;;;49.00;39.22;;;;;;;;;;5021672;28;20029;-72
2023/12/18 01:55:01;;;;;;;50.90;39.40;;;;;;;;;;5013138;28;20428;-75
2023/12/18 01:57:27;;;;;;;47.63;37.67;;;;;;;;;;5015733;28;20017;-74
2023/12/18 01:59:52;;;;;;;52.45;41.25;;;;;;;;;;5008150;28;20045;-73
2023/12/18 02:02:18;;;;;;;33.30;29.60;;;;;;;;;;5000249;28;20025;-72
2023/12/18 02:04:44;;;;;;;42.92;34.97;;;;;;;;;;5005742;28;20353;-73
2023/12/18 02:07:09;;;;;;;68.03;49.03;;;;;;;;;;5006470;28;20116;-71
2023/12/18 02:09:35;;;;;;;66.53;47.10;;;;;;;;;;5005190;28;20345;-72
2023/12/18 02:12:00;;;;;;;52.78;36.83;;;;;;;;;;5005715;28;20026;-74
2023/12/18 02:14:26;;;;;;;44.35;34.50;;;;;;;;;;4996826;28;20341;-74
2023/12/18 02:16:51;;;;;;;58.28;42.88;;;;;;;;;;4999720;28;20038;-73
2023/12/18 02:19:27;;;;;;;75.95;54.30;;;;;;;;;;5020130;28;20624;-73
2023/12/18 02:21:56;;;;;;;71.40;49.58;;;;;;;;;;5013007;28;20669;-75
2023/12/18 02:24:22;;;;;;;48.78;37.90;;;;;;;;;;5012919;28;20033;-71
2023/12/18 02:26:47;;;;;;;62.00;46.35;;;;;;;;;;5019793;28;20033;-75
2023/12/18 02:29:13;;;;;;;44.65;36.22;;;;;;;;;;5022725;28;20105;-72
2023/12/18 02:31:39;;;;;;;28.55;25.08;;;;;;;;;;5024253;28;20034;-73
2023/12/18 02:34:04;;;;;;;31.58;26.33;;;;;;;;;;5011193;28;20464;-72
2023/12/18 02:36:29;;;;;;;61.78;47.90;;;;;;;;;;5024057;28;20188;-71
2023/12/18 02:38:55;;;;;;;51.85;40.22;;;;;;;;;;5010938;28;20038;-71
2023/12/18 02:41:21;;;;;;;78.97;57.03;;;;;;;;;;5018222;28;20034;-71
2023/12/18 02:43:46;;;;;;;75.72;55.78;;;;;;;;;;5007159;28;20029;-72
2023/12/18 02:46:11;;;;;;;47.08;37.80;;;;;;;;;;5024415;28;20344;-72
2023/12/18 02:48:37;;;;;;;42.83;36.47;;;;;;;;;;5023873;28;20048;-72
2023/12/18 02:51:02;;;;;;;46.03;36.30;;;;;;;;;;5024449;28;20429;-75
2023/12/18 02:53:28;;;;;;;34.17;28.65;;;;;;;;;;5023753;28;20034;-71
2023/12/18 02:55:53;;;;;;;35.70;30.58;;;;;;;;;;5026341;28;20044;-72
2023/12/18 02:58:21;;;;;;;44.53;36.42;;;;;;;;;;5024622;28;20529;-72
2023/12/18 03:00:47;;;;;;;323.38;216.57;;;;;;;;;;5024439;28;20108;-73
2023/12/18 03:03:12;;;;;;;220.60;158.55;;;;;;;;;;5024769;28;20144;-72
2023/12/18 03:05:37;;;;;;;62.80;47.38;;;;;;;;;;5024650;28;20325;-74
2023/12/18 03:08:03;;;;;;;37.95;31.63;;;;;;;;;;5023412;28;20061;-72
2023/12/18 03:10:29;;;;;;;48.60;39.47;;;;;;;;;;5024566;28;20033;-73
2023/12/18 03:12:54;;;;;;;40.85;33.38;;;;;;;;;;5024082;28;20034;-74
2023/12/18 03:15:20;;;;;;;42.58;37.78;;;;;;;;;;5024511;28;20032;-73
2023/12/18 03:17:45;;;;;;;31.73;28.30;;;;;;;;;;5023410;28;20029;-74
2023/12/18 03:20:10;;;;;;;30.52;25.38;;;;;;;;;;5009150;28;20025;-74
2023/12/18 03:22:36;;;;;;;29.50;25.10;;;;;;;;;;5008819;28;20025;-73
2023/12/18 03:25:02;;;;;;;25.20;22.52;;;;;;;;;;5023829;28;20040;-76
2023/12/18 03:27:27;;;;;;;25.08;22.58;;;;;;;;;;5023127;28;20064;-74
2023/12/18 03:29:52;;;;;;;25.92;23.15;;;;;;;;;;5024538;28;20128;-74
2023/12/18 03:32:18;;;;;;;23.42;21.00;;;;;;;;;;5018459;28;20029;-72
2023/12/18 03:34:43;;;;;;;26.30;23.63;;;;;;;;;;5015405;28;20368;-72
2023/12/18 03:37:08;;;;;;;27.95;24.92;;;;;;;;;;5023767;28;20410;-71
2023/12/18 03:39:34;;;;;;;25.88;23.25;;;;;;;;;;5022384;28;20102;-71
2023/12/18 03:41:59;;;;;;;28.58;25.58;;;;;;;;;;5021565;28;20040;-73
2023/12/18 03:44:24;;;;;;;25.33;22.55;;;;;;;;;;5010343;28;20017;-73
2023/12/18 03:46:50;;;;;;;25.02;22.35;;;;;;;;;;5024016;28;20108;-72
2023/12/18 03:49:15;;;;;;;27.67;23.95;;;;;;;;;;5023606;28;20352;-74
2023/12/18 03:51:41;;;;;;;24.90;21.60;;;;;;;;;;5009050;28;20132;-72
2023/12/18 03:54:06;;;;;;;23.67;21.17;;;;;;;;;;5010855;28;20026;-71
2023/12/18 03:56:31;;;;;;;23.73;21.33;;;;;;;;;;5021493;28;20096;-75
2023/12/18 03:58:57;;;;;;;27.55;24.65;;;;;;;;;;5011980;28;20449;-72
2023/12/18 04:01:22;;;;;;;27.55;24.60;;;;;;;;;;5022319;28;20318;-73
2023/12/18 04:03:47;;;;;;;27.83;24.92;;;;;;;;;;5022935;28;20029;-72
2023/12/18 04:06:13;;;;;;;27.92;24.98;;;;;;;;;;5023372;28;20034;-73
2023/12/18 04:08:39;;;;;;;27.00;24.17;;;;;;;;;;5022460;28;20053;-74
2023/12/18 04:11:05;;;;;;;28.67;24.50;;;;;;;;;;5023994;28;20033;-73
2023/12/18 04:13:30;;;;;;;29.65;25.13;;;;;;;;;;5023133;28;20088;-74
2023/12/18 04:15:55;;;;;;;25.88;23.17;;;;;;;;;;5022717;28;20037;-74
2023/12/18 04:18:20;;;;;;;28.40;24.85;;;;;;;;;;5022235;28;20433;-73
2023/12/18 04:20:46;;;;;;;28.02;25.02;;;;;;;;;;5022259;28;20383;-73
2023/12/18 04:23:11;;;;;;;25.85;23.25;;;;;;;;;;5017668;28;20033;-72
2023/12/18 04:25:36;;;;;;;41.03;29.92;;;;;;;;;;5011526;28;20029;-72
2023/12/18 04:28:02;;;;;;;37.78;28.25;;;;;;;;;;5022698;28;20108;-72
2023/12/18 04:30:27;;;;;;;35.47;28.60;;;;;;;;;;5010496;28;20068;-73
2023/12/18 04:32:53;;;;;;;42.72;32.50;;;;;;;;;;5022551;28;20134;-75
2023/12/18 04:35:18;;;;;;;44.00;36.15;;;;;;;;;;5023267;28;20021;-74
2023/12/18 04:37:44;;;;;;;40.97;34.45;;;;;;;;;;5016338;28;20025;-75
2023/12/18 04:40:10;;;;;;;37.33;31.55;;;;;;;;;;5015875;28;20516;-74
2023/12/18 04:42:36;;;;;;;32.53;27.45;;;;;;;;;;5023066;28;20037;-73
2023/12/18 04:45:02;;;;;;;29.38;25.77;;;;;;;;;;5008882;28;20026;-72
2023/12/18 04:47:27;;;;;;;32.70;29.15;;;;;;;;;;5021533;28;20033;-73
2023/12/18 04:49:53;;;;;;;29.05;25.45;;;;;;;;;;5021801;28;20453;-72
2023/12/18 04:52:18;;;;;;;27.77;24.77;;;;;;;;;;5021753;28;20029;-75
2023/12/18 04:54:43;;;;;;;26.63;23.83;;;;;;;;;;5021277;28;20113;-73
2023/12/18 04:57:09;;;;;;;28.67;24.55;;;;;;;;;;5022763;28;20360;-73
2023/12/18 04:59:34;;;;;;;25.90;22.90;;;;;;;;;;5022232;28;20404;-72
2023/12/18 05:01:59;;;;;;;25.02;22.25;;;;;;;;;;5005072;28;20124;-73
2023/12/18 05:04:25;;;;;;;32.53;26.67;;;;;;;;;;5013796;28;20325;-72
2023/12/18 05:06:50;;;;;;;37.75;29.48;;;;;;;;;;5016169;28;20036;-72
2023/12/18 05:09:16;;;;;;;33.83;29.67;;;;;;;;;;5004940;28;20140;-72
2023/12/18 05:11:41;;;;;;;51.03;41.55;;;;;;;;;;5020306;28;20353;-74
2023/12/18 05:14:08;;;;;;;30.50;25.80;;;;;;;;;;5021450;28;20623;-73
2023/12/18 05:16:33;;;;;;;30.25;26.75;;;;;;;;;;5017694;28;20063;-74
2023/12/18 05:18:58;;;;;;;33.85;27.77;;;;;;;;;;5022312;28;20060;-72
2023/12/18 05:21:24;;;;;;;54.30;36.47;;;;;;;;;;5010944;28;20025;-72
2023/12/18 05:23:50;;;;;;;44.75;32.00;;;;;;;;;;5020685;28;20029;-71
2023/12/18 05:26:16;;;;;;;32.45;27.25;;;;;;;;;;5021540;28;20022;-72
2023/12/18 05:28:41;;;;;;;26.92;23.42;;;;;;;;;;5007441;28;20334;-72
2023/12/18 05:31:10;;;;;;;32.75;25.98;;;;;;;;;;5021477;28;20949;-74
2023/12/18 05:33:35;;;;;;;51.37;37.97;;;;;;;;;;5022223;28;20352;-72
2023/12/18 05:36:00;;;;;;;82.75;52.65;;;;;;;;;;5021416;28;20017;-72
2023/12/18 05:38:26;;;;;;;63.95;40.35;;;;;;;;;;5009083;28;20444;-72
2023/12/18 05:40:51;;;;;;;69.38;44.80;;;;;;;;;;5021189;28;20033;-75
2023/12/18 05:43:16;;;;;;;41.75;32.42;;;;;;;;;;5001554;28;20175;-74
2023/12/18 05:45:42;;;;;;;43.53;33.63;;;;;;;;;;5018756;28;20064;-73
2023/12/18 05:48:07;;;;;;;78.25;51.90;;;;;;;;;;5020630;28;20401;-74
2023/12/18 05:50:33;;;;;;;38.60;29.85;;;;;;;;;;5021506;28;20056;-73
2023/12/18 05:52:58;;;;;;;35.33;28.50;;;;;;;;;;5018948;28;20026;-73
2023/12/18 05:55:23;;;;;;;29.98;25.45;;;;;;;;;;5007972;28;20017;-73
2023/12/18 05:57:49;;;;;;;33.47;27.95;;;;;;;;;;5006915;28;20025;-72
2023/12/18 06:00:14;;;;;;;28.33;25.30;;;;;;;;;;5006003;28;20111;-73
2023/12/18 06:02:40;;;;;;;28.67;25.10;;;;;;;;;;5006269;28;20750;-72
2023/12/18 06:05:05;;;;;;;34.33;28.50;;;;;;;;;;5013804;28;20063;-75
2023/12/18 06:07:31;;;;;;;77.35;48.22;;;;;;;;;;5008930;28;20083;-72
2023/12/18 06:09:56;;;;;;;66.72;44.35;;;;;;;;;;5020898;28;20729;-74
2023/12/18 06:12:21;;;;;;;63.50;46.88;;;;;;;;;;5020738;28;20108;-73
2023/12/18 06:14:47;;;;;;;70.53;47.35;;;;;;;;;;5020605;28;20044;-73
2023/12/18 06:17:12;;;;;;;111.88;81.82;;;;;;;;;;5019738;28;20033;-73
2023/12/18 06:19:38;;;;;;;88.30;65.82;;;;;;;;;;5020875;28;20029;-72
2023/12/18 06:22:03;;;;;;;245.32;163.68;;;;;;;;;;5010334;28;20088;-71
2023/12/18 06:24:29;;;;;;;155.35;110.88;;;;;;;;;;5008191;28;20094;-72
2023/12/18 06:26:54;;;;;;;154.57;116.78;;;;;;;;;;5021304;28;20047;-72
2023/12/18 06:29:20;;;;;;;209.77;144.85;;;;;;;;;;5014235;28;20343;-73
2023/12/18 06:31:45;;;;;;;104.97;76.68;;;;;;;;;;5012686;28;20034;-71
2023/12/18 06:34:11;;;;;;;85.25;57.28;;;;;;;;;;5008032;28;20060;-71
2023/12/18 06:36:36;;;;;;;110.32;83.10;;;;;;;;;;5018848;28;20496;-73
2023/12/18 06:39:02;;;;;;;88.80;69.63;;;;;;;;;;5015311;28;20026;-74
2023/12/18 06:41:27;;;;;;;52.13;43.72;;;;;;;;;;5014926;28;20034;-72
2023/12/18 06:43:52;;;;;;;51.90;44.22;;;;;;;;;;5020935;28;20503;-74
2023/12/18 06:46:18;;;;;;;37.63;31.88;;;;;;;;;;5010674;28;20445;-72
2023/12/18 06:48:43;;;;;;;38.78;30.92;;;;;;;;;;5018843;28;20075;-73
2023/12/18 06:51:11;;;;;;;39.33;29.98;;;;;;;;;;5020187;28;20037;-73
2023/12/18 06:53:37;;;;;;;60.60;40.67;;;;;;;;;;5010365;28;20349;-71
2023/12/18 06:56:02;;;;;;;52.75;33.58;;;;;;;;;;5018430;28;20036;-72
2023/12/18 06:58:28;;;;;;;84.13;50.55;;;;;;;;;;5016699;28;20025;-71
2023/12/18 07:00:53;;;;;;;47.35;37.83;;;;;;;;;;4998904;28;20037;-75
2023/12/18 07:03:19;;;;;;;43.30;35.95;;;;;;;;;;5006302;28;20038;-73
2023/12/18 07:05:44;;;;;;;63.78;43.90;;;;;;;;;;5004874;28;20056;-74
2023/12/18 07:08:10;;;;;;;78.68;52.00;;;;;;;;;;4996041;28;20107;-72
2023/12/18 07:10:35;;;;;;;64.60;49.63;;;;;;;;;;5008292;28;20122;-73
2023/12/18 07:13:00;;;;;;;83.85;61.40;;;;;;;;;;5007799;28;20376;-73
2023/12/18 07:15:26;;;;;;;78.65;56.53;;;;;;;;;;5003955;28;20124;-72
2023/12/18 07:17:52;;;;;;;62.15;43.50;;;;;;;;;;5014692;28;20025;-72
2023/12/18 07:20:17;;;;;;;35.72;28.55;;;;;;;;;;5020152;28;20033;-72
2023/12/18 07:22:42;;;;;;;64.85;50.08;;;;;;;;;;5007568;28;20105;-73
2023/12/18 07:25:11;;;;;;;59.72;46.63;;;;;;;;;;5024630;28;20037;-72
2023/12/18 07:27:37;;;;;;;63.90;50.17;;;;;;;;;;5024651;28;20033;-71
2023/12/18 07:30:03;;;;;;;123.35;96.78;;;;;;;;;;5024419;28;20620;-73
2023/12/18 07:32:29;;;;;;;69.28;61.78;;;;;;;;;;5006368;28;20014;-73
2023/12/18 07:34:54;;;;;;;53.65;48.17;;;;;;;;;;4994596;28;20045;-72
2023/12/18 07:37:20;;;;;;;78.85;70.30;;;;;;;;;;4992666;28;20480;-72
2023/12/18 07:39:45;;;;;;;162.60;145.73;;;;;;;;;;5009013;28;20037;-73
2023/12/18 07:42:11;;;;;;;65.25;57.60;;;;;;;;;;5022637;28;20033;-72
2023/12/18 07:44:36;;;;;;;129.77;102.32;;;;;;;;;;5022745;28;20144;-72
2023/12/18 07:47:01;;;;;;;278.42;211.00;;;;;;;;;;5019597;28;20036;-76
2023/12/18 07:49:27;;;;;;;237.02;163.90;;;;;;;;;;5008658;28;20037;-73
2023/12/18 07:51:52;;;;;;;199.05;177.25;;;;;;;;;;4997847;28;20342;-75
2023/12/18 07:54:17;;;;;;;117.85;100.18;;;;;;;;;;5003017;28;20053;-74
2023/12/18 07:56:43;;;;;;;144.38;118.25;;;;;;;;;;5014090;28;20041;-74
2023/12/18 07:59:10;;;;;;;88.05;68.13;;;;;;;;;;5010983;28;20463;-76
2023/12/18 08:01:36;;;;;;;138.50;109.43;;;;;;;;;;5023382;28;20032;-76
2023/12/18 08:04:01;;;;;;;60.40;47.78;;;;;;;;;;5024535;28;20025;-74
2023/12/18 08:06:27;;;;;;;34.88;31.05;;;;;;;;;;5023435;28;20104;-75
2023/12/18 08:08:52;;;;;;;36.60;32.72;;;;;;;;;;5021677;28;21063;-75
2023/12/18 08:11:17;;;;;;;103.32;87.93;;;;;;;;;;5012490;28;20029;-80
2023/12/18 08:13:44;;;;;;;67.22;58.40;;;;;;;;;;5008017;28;20026;-80
2023/12/18 08:16:10;;;;;;;80.68;70.45;;;;;;;;;;5007500;28;20021;-79
2023/12/18 08:18:36;;;;;;;53.22;47.55;;;;;;;;;;5006599;28;20043;-84
2023/12/18 08:21:01;;;;;;;37.75;33.67;;;;;;;;;;5007178;28;20035;-82
2023/12/18 08:23:26;;;;;;;34.33;30.73;;;;;;;;;;5007355;28;20400;-80
2023/12/18 08:25:52;;;;;;;63.25;50.40;;;;;;;;;;5005716;28;20111;-79
2023/12/18 08:28:17;;;;;;;22.60;19.92;;;;;;;;;;4990565;28;21099;-79
2023/12/18 08:30:44;;;;;;;24.20;21.70;;;;;;;;;;5008515;28;20033;-78
2023/12/18 08:33:09;;;;;;;82.82;46.95;;;;;;;;;;5008784;28;20043;-80
2023/12/18 08:35:35;;;;;;;48.42;31.77;;;;;;;;;;4996540;28;20676;-79
2023/12/18 08:38:00;;;;;;;42.60;31.35;;;;;;;;;;5010016;28;20036;-79
2023/12/18 08:40:25;;;;;;;74.53;42.55;;;;;;;;;;5009469;28;20025;-78
2023/12/18 08:42:51;;;;;;;30.17;26.85;;;;;;;;;;5009340;28;20056;-77
2023/12/18 08:45:17;;;;;;;25.42;22.98;;;;;;;;;;5009720;28;20326;-79
2023/12/18 08:47:42;;;;;;;36.83;30.05;;;;;;;;;;5009492;28;20171;-79
2023/12/18 08:50:09;;;;;;;101.00;67.95;;;;;;;;;;5006801;28;20044;-80
2023/12/18 08:52:35;;;;;;;101.50;57.13;;;;;;;;;;5006711;28;20041;-78
2023/12/18 08:55:00;;;;;;;24.33;21.75;;;;;;;;;;5008861;28;20101;-82
2023/12/18 08:57:27;;;;;;;15.93;14.45;;;;;;;;;;5009516;28;20419;-82
2023/12/18 08:59:54;;;;;;;19.08;17.40;;;;;;;;;;5008415;28;20388;-79
2023/12/18 09:02:19;;;;;;;17.48;15.82;;;;;;;;;;5010034;28;20026;-79
2023/12/18 09:04:45;;;;;;;23.13;20.73;;;;;;;;;;5008878;28;20032;-81
2023/12/18 09:07:10;;;;;;;13.20;11.93;;;;;;;;;;5008857;28;20041;-83
2023/12/18 09:09:39;;;;;;;13.18;10.60;;;;;;;;;;5016808;28;20045;-81
2023/12/18 09:12:04;;;;;;;12.90;11.70;;;;;;;;;;5020545;28;20434;-81
2023/12/18 09:14:30;;;;;;;45.85;40.95;;;;;;;;;;5022256;28;20037;-81
2023/12/18 09:16:55;;;;;;;24.40;22.00;;;;;;;;;;5017165;28;20022;-83
2023/12/18 09:19:20;;;;;;;22.17;19.90;;;;;;;;;;5009854;28;20033;-81
2023/12/18 09:21:46;;;;;;;13.20;11.80;;;;;;;;;;5001072;28;20044;-82
2023/12/18 09:24:11;;;;;;;18.15;15.63;;;;;;;;;;5010305;28;20033;-81
2023/12/18 09:26:37;;;;;;;24.52;21.65;;;;;;;;;;5010736;28;20029;-80
2023/12/18 09:29:02;;;;;;;18.58;15.05;;;;;;;;;;5014667;28;20666;-82
2023/12/18 09:31:28;;;;;;;22.27;16.02;;;;;;;;;;5022056;28;20027;-81
2023/12/18 09:33:53;;;;;;;13.77;11.35;;;;;;;;;;5016181;28;20456;-84
2023/12/18 09:36:18;;;;;;;30.80;21.73;;;;;;;;;;5009651;28;20021;-83
2023/12/18 09:38:44;;;;;;;15.50;13.93;;;;;;;;;;5007119;28;20068;-83
2023/12/18 09:41:09;;;;;;;16.02;14.45;;;;;;;;;;5009206;28;20079;-84
2023/12/18 09:43:35;;;;;;;15.48;13.88;;;;;;;;;;5007814;28;20037;-82
2023/12/18 09:46:00;;;;;;;20.52;18.40;;;;;;;;;;5008122;28;20067;-81
2023/12/18 09:48:26;;;;;;;15.70;14.23;;;;;;;;;;5014907;28;20452;-83
2023/12/18 09:50:51;;;;;;;30.88;27.15;;;;;;;;;;5005359;28;20843;-80
2023/12/18 09:53:20;;;;;;;27.92;23.23;;;;;;;;;;5010470;28;20029;-83
2023/12/18 09:55:46;;;;;;;33.95;26.00;;;;;;;;;;5020865;28;20240;-82
2023/12/18 09:58:13;;;;;;;22.08;18.20;;;;;;;;;;5010287;28;20463;-81
2023/12/18 10:00:39;;;;;;;25.20;18.23;;;;;;;;;;5011892;28;20163;-76
2023/12/18 10:03:04;;;;;;;57.42;38.17;;;;;;;;;;5010285;28;20160;-77
2023/12/18 10:05:29;;;;;;;26.58;21.63;;;;;;;;;;5006832;28;20337;-71
2023/12/18 10:07:59;;;;;;;21.77;19.70;;;;;;;;;;5004671;28;20049;-77
2023/12/18 10:10:24;;;;;;;29.08;24.05;;;;;;;;;;5004265;28;20038;-78
2023/12/18 10:12:49;;;;;;;24.17;21.10;;;;;;;;;;5013770;28;20075;-75
2023/12/18 10:15:15;;;;;;;19.35;17.55;;;;;;;;;;5010801;28;20458;-75
2023/12/18 10:17:41;;;;;;;23.02;20.75;;;;;;;;;;5016329;28;20451;-76
2023/12/18 10:20:07;;;;;;;20.67;18.55;;;;;;;;;;5006720;28;20412;-77
2023/12/18 10:22:33;;;;;;;18.25;16.45;;;;;;;;;;5019657;28;20037;-76
2023/12/18 10:25:04;;;;;;;28.30;25.40;;;;;;;;;;5006212;28;20037;-76
2023/12/18 10:27:33;;;;;;;30.23;26.30;;;;;;;;;;5005977;28;20034;-74
2023/12/18 10:29:59;;;;;;;45.53;32.50;;;;;;;;;;5004433;28;20095;-72
2023/12/18 10:32:27;;;;;;;12.45;11.15;;;;;;;;;;5006595;28;20037;-72
2023/12/18 10:34:54;;;;;;;31.55;27.33;;;;;;;;;;5016824;28;20033;-74
2023/12/18 10:37:20;;;;;;;23.70;20.20;;;;;;;;;;5020074;28;20037;-75
2023/12/18 10:39:49;;;;;;;11.65;10.55;;;;;;;;;;5017750;28;20492;-75
2023/12/18 10:42:22;;;;;;;12.70;11.40;;;;;;;;;;5006243;28;20045;-76
2023/12/18 10:44:48;;;;;;;16.20;12.15;;;;;;;;;;5019994;28;20021;-76
2023/12/18 10:47:16;;;;;;;13.82;12.50;;;;;;;;;;5020704;28;20026;-76
2023/12/18 10:49:42;;;;;;;24.55;21.40;;;;;;;;;;5021362;28;20067;-78
2023/12/18 10:52:08;;;;;;;24.60;19.98;;;;;;;;;;5024028;28;20028;-77
2023/12/18 10:54:34;;;;;;;19.33;17.30;;;;;;;;;;5024729;28;20022;-74
2023/12/18 10:57:00;;;;;;;33.95;28.38;;;;;;;;;;5024932;28;20159;-76
2023/12/18 10:59:28;;;;;;;22.60;19.25;;;;;;;;;;5025338;28;20544;-76
2023/12/18 11:01:54;;;;;;;12.82;11.63;;;;;;;;;;5025284;28;20033;-76
2023/12/18 11:04:22;;;;;;;15.80;14.23;;;;;;;;;;5023996;28;20033;-75
2023/12/18 11:06:47;;;;;;;37.38;31.58;;;;;;;;;;5024064;28;20128;-78
2023/12/18 11:09:12;;;;;;;18.52;15.95;;;;;;;;;;5024896;28;20141;-76
2023/12/18 11:11:40;;;;;;;22.15;19.98;;;;;;;;;;5024287;28;20045;-78
2023/12/18 11:14:23;;;;;;;15.57;14.18;;;;;;;;;;5024736;28;20083;-76
2023/12/18 11:16:49;;;;;;;18.63;16.83;;;;;;;;;;5025158;28;20036;-76
2023/12/18 11:19:23;;;;;;;20.73;18.73;;;;;;;;;;5025139;28;20022;-78
2023/12/18 11:21:49;;;;;;;14.60;13.10;;;;;;;;;;5024431;28;20025;-78
2023/12/18 11:24:15;;;;;;;35.10;31.45;;;;;;;;;;5024046;28;20163;-78
2023/12/18 11:26:41;;;;;;;19.40;17.50;;;;;;;;;;5024853;28;20048;-79
2023/12/18 11:29:25;;;;;;;16.15;14.70;;;;;;;;;;5023666;28;20364;-76
2023/12/18 11:31:52;;;;;;;36.05;27.95;;;;;;;;;;5024081;28;20041;-76
2023/12/18 11:34:18;;;;;;;28.00;20.05;;;;;;;;;;5024459;28;20433;-78
2023/12/18 11:36:43;;;;;;;68.20;52.38;;;;;;;;;;5024115;28;20062;-77
2023/12/18 11:39:08;;;;;;;39.22;31.77;;;;;;;;;;5023275;28;20028;-76
2023/12/18 11:41:38;;;;;;;51.88;37.67;;;;;;;;;;5024545;28;20502;-79
2023/12/18 11:44:07;;;;;;;22.75;19.95;;;;;;;;;;5023111;28;20034;-79
2023/12/18 11:46:33;;;;;;;25.42;19.77;;;;;;;;;;5024144;28;20400;-77
2023/12/18 11:49:00;;;;;;;27.05;21.52;;;;;;;;;;5012822;28;20021;-76
2023/12/18 11:51:25;;;;;;;23.25;20.67;;;;;;;;;;5023252;28;20044;-76
2023/12/18 11:54:03;;;;;;;23.50;21.02;;;;;;;;;;5024295;28;20033;-77
2023/12/18 11:56:37;;;;;;;38.58;30.38;;;;;;;;;;5024152;28;20429;-77
2023/12/18 11:59:02;;;;;;;21.92;19.27;;;;;;;;;;5023910;28;20033;-81
2023/12/18 12:01:27;;;;;;;26.45;22.23;;;;;;;;;;5022456;28;20107;-78
2023/12/18 12:03:53;;;;;;;19.52;13.82;;;;;;;;;;5023508;28;20474;-78
2023/12/18 12:06:19;;;;;;;19.95;14.70;;;;;;;;;;5023246;28;20411;-78
2023/12/18 12:08:48;;;;;;;21.02;15.82;;;;;;;;;;5023669;28;20054;-76
2023/12/18 12:11:13;;;;;;;49.17;36.30;;;;;;;;;;5023384;28;20029;-82
2023/12/18 12:13:38;;;;;;;43.53;33.90;;;;;;;;;;5022833;28;20283;-78
2023/12/18 12:16:04;;;;;;;39.80;30.85;;;;;;;;;;5023778;28;20025;-76
2023/12/18 12:18:30;;;;;;;28.88;23.50;;;;;;;;;;5022912;28;20040;-77
2023/12/18 12:20:55;;;;;;;26.08;23.27;;;;;;;;;;5023261;28;20029;-75
2023/12/18 12:23:21;;;;;;;20.17;18.08;;;;;;;;;;5023989;28;20028;-75
2023/12/18 12:25:48;;;;;;;41.47;37.08;;;;;;;;;;5023391;28;20421;-78
2023/12/18 12:28:14;;;;;;;22.88;20.48;;;;;;;;;;5023373;28;20029;-78
2023/12/18 12:30:40;;;;;;;24.88;22.38;;;;;;;;;;5023298;28;20029;-76
2023/12/18 12:33:05;;;;;;;38.22;34.53;;;;;;;;;;5022386;28;20118;-77
2023/12/18 12:35:35;;;;;;;27.05;24.33;;;;;;;;;;5022324;28;20369;-77
2023/12/18 12:38:02;;;;;;;23.63;20.73;;;;;;;;;;5023102;28;20026;-75
2023/12/18 12:40:38;;;;;;;29.77;26.52;;;;;;;;;;5022469;28;20021;-78
2023/12/18 12:43:03;;;;;;;29.77;26.73;;;;;;;;;;5023247;28;20083;-77
2023/12/18 12:45:29;;;;;;;25.98;20.27;;;;;;;;;;5023060;28;20064;-79
2023/12/18 12:47:58;;;;;;;30.33;24.98;;;;;;;;;;5023584;28;20026;-79
2023/12/18 12:50:23;;;;;;;13.20;11.80;;;;;;;;;;5023030;28;20441;-77
2023/12/18 12:52:49;;;;;;;31.65;26.20;;;;;;;;;;5023254;28;20040;-76
2023/12/18 12:55:15;;;;;;;30.33;24.80;;;;;;;;;;5022303;28;20021;-76
2023/12/18 12:57:40;;;;;;;56.33;50.35;;;;;;;;;;5023142;28;20021;-76
2023/12/18 13:00:08;;;;;;;22.55;20.45;;;;;;;;;;5022801;28;20021;-79
2023/12/18 13:02:34;;;;;;;31.80;29.10;;;;;;;;;;5022548;28;20207;-77
2023/12/18 13:04:59;;;;;;;33.20;30.00;;;;;;;;;;5022992;28;20455;-77
2023/12/18 13:07:25;;;;;;;28.92;25.92;;;;;;;;;;5022396;28;20120;-78
2023/12/18 13:09:50;;;;;;;26.92;24.42;;;;;;;;;;5021610;28;20046;-78
2023/12/18 13:12:17;;;;;;;27.75;22.88;;;;;;;;;;5022127;28;20033;-79
2023/12/18 13:14:42;;;;;;;24.50;20.25;;;;;;;;;;5022703;28;20744;-74
2023/12/18 13:17:08;;;;;;;20.42;17.23;;;;;;;;;;5022411;28;20032;-78
2023/12/18 13:19:33;;;;;;;25.10;22.50;;;;;;;;;;5022000;28;20060;-77
2023/12/18 13:22:00;;;;;;;34.58;30.73;;;;;;;;;;5021935;28;20029;-77
2023/12/18 13:24:25;;;;;;;29.63;22.40;;;;;;;;;;5022023;28;20087;-76
2023/12/18 13:26:51;;;;;;;40.85;34.75;;;;;;;;;;5022361;28;20037;-75
2023/12/18 13:29:16;;;;;;;30.35;26.00;;;;;;;;;;5022146;28;20036;-77
2023/12/18 13:31:41;;;;;;;43.97;35.05;;;;;;;;;;5021655;28;20097;-78
2023/12/18 13:34:07;;;;;;;41.50;23.08;;;;;;;;;;5021899;28;20026;-77
2023/12/18 13:36:32;;;;;;;59.75;35.78;;;;;;;;;;5021446;28;20024;-76
2023/12/18 13:38:58;;;;;;;53.55;35.05;;;;;;;;;;5021840;28;20036;-77
2023/12/18 13:41:33;;;;;;;45.20;32.35;;;;;;;;;;5022710;28;20041;-76
2023/12/18 13:43:59;;;;;;;50.65;37.72;;;;;;;;;;5021295;28;20164;-78
2023/12/18 13:46:24;;;;;;;49.33;39.28;;;;;;;;;;5022056;28;20033;-77
2023/12/18 13:48:49;;;;;;;31.45;23.90;;;;;;;;;;5021550;28;21185;-78
2023/12/18 13:51:15;;;;;;;29.55;21.75;;;;;;;;;;5021849;28;20052;-79
2023/12/18 13:53:40;;;;;;;38.95;27.80;;;;;;;;;;5021786;28;20021;-77
2023/12/18 13:56:06;;;;;;;31.42;23.60;;;;;;;;;;5021309;28;20098;-77
2023/12/18 13:58:31;;;;;;;37.85;23.48;;;;;;;;;;5021849;28;20117;-76
2023/12/18 14:00:57;;;;;;;31.05;19.83;;;;;;;;;;5021783;28;20394;-75
2023/12/18 14:03:22;;;;;;;60.40;39.78;;;;;;;;;;5021841;28;20029;-77
2023/12/18 14:05:47;;;;;;;115.30;73.03;;;;;;;;;;5021590;28;20117;-77
2023/12/18 14:08:13;;;;;;;102.53;58.38;;;;;;;;;;5020775;28;20623;-78